createdAt,value
2018-04-12T07:46:34.451Z,98.03
2018-04-12T07:47:34.771Z,97.08
2018-04-12T07:48:35.155Z,97.75
2018-04-12T07:49:34.335Z,96.61
2018-04-12T07:50:34.330Z,96.51
2018-04-12T07:51:34.813Z,97.37
2018-04-12T07:52:34.261Z,97.89
2018-04-12T07:53:34.240Z,98.13
2018-04-12T07:54:34.258Z,96.51
2018-04-12T07:55:34.244Z,95.89
2018-04-12T07:56:34.261Z,95.22
2018-04-12T07:57:34.293Z,94.84
2018-04-12T07:58:34.251Z,94.93
2018-04-12T07:59:34.256Z,94.84
2018-04-12T08:00:34.260Z,94.74
2018-04-12T08:01:34.261Z,94.93
2018-04-12T08:02:34.254Z,94.65
2018-04-12T08:03:34.285Z,94.74
2018-04-12T08:04:34.264Z,94.65
2018-04-12T08:05:34.270Z,94.46
2018-04-12T08:06:35.162Z,93.88
2018-04-12T08:07:34.315Z,93.70
2018-04-12T08:08:34.319Z,93.36
2018-04-12T08:09:34.295Z,93.16
2018-04-12T08:10:34.340Z,92.74
2018-04-12T08:11:34.315Z,93.12
2018-04-12T08:14:54.404Z,95.27
2018-04-12T08:15:44.688Z,94.93
2018-04-12T08:16:54.096Z,94.93
2018-04-12T08:18:38.108Z,92.97
2018-04-12T08:19:38.064Z,92.30
2018-04-12T08:20:38.061Z,92.97
2018-04-12T08:21:38.043Z,92.11
2018-04-12T08:22:38.065Z,93.12
2018-04-12T08:23:38.067Z,92.88
2018-04-12T08:24:38.077Z,92.21
2018-04-12T08:25:38.062Z,91.11
2018-04-12T08:26:38.058Z,90.34
2018-04-12T08:27:38.085Z,89.82
2018-04-12T08:28:38.068Z,90.30
2018-04-12T08:29:38.091Z,90.92
2018-04-12T08:30:38.126Z,89.87
2018-04-12T08:31:38.087Z,90.01
2018-04-12T08:32:39.034Z,89.92
2018-04-12T08:33:38.078Z,90.68
2018-04-12T08:34:38.110Z,91.64
2018-04-12T08:35:39.033Z,91.25
2018-04-12T08:36:38.089Z,91.25
2018-04-12T08:37:38.113Z,90.16
2018-04-12T08:38:38.105Z,89.20
2018-04-12T08:39:38.134Z,88.09
2018-04-12T08:40:38.124Z,88.53
2018-04-12T08:41:38.133Z,88.62
2018-04-12T08:42:38.110Z,89.29
2018-04-12T08:43:39.042Z,90.01
2018-04-12T08:44:38.116Z,91.06
2018-04-12T08:45:38.132Z,90.88
2018-04-12T08:46:38.136Z,91.50
2018-04-12T08:47:38.141Z,92.93
2018-04-12T08:48:38.142Z,93.50
2018-04-12T08:49:38.129Z,93.50
2018-04-12T08:50:38.146Z,93.02
2018-04-12T08:51:38.150Z,92.93
2018-04-12T08:52:39.039Z,93.84
2018-04-12T08:53:38.150Z,94.70
2018-04-12T08:54:38.138Z,94.17
2018-04-12T08:55:38.186Z,93.12
2018-04-12T08:56:38.192Z,93.21
2018-04-12T08:57:38.161Z,93.21
2018-04-12T08:58:38.159Z,92.64
2018-04-12T08:59:38.176Z,92.74
2018-04-12T09:00:38.228Z,92.07
2018-04-12T09:01:38.169Z,92.16
2018-04-12T09:02:38.280Z,93.02
2018-04-12T09:03:38.175Z,92.93
2018-04-12T09:04:38.175Z,93.21
2018-04-12T09:05:38.180Z,92.93
2018-04-12T09:06:38.188Z,92.59
2018-04-12T09:07:39.543Z,92.59
2018-04-12T09:08:38.186Z,91.64
2018-04-12T09:09:38.216Z,91.35
2018-04-12T09:10:38.197Z,90.68
2018-04-12T09:11:38.202Z,90.73
2018-04-12T09:12:38.199Z,90.06
2018-04-12T09:13:38.211Z,90.39
2018-04-12T09:14:38.244Z,91.54
2018-04-12T09:15:38.232Z,91.11
2018-04-12T09:16:38.228Z,90.25
2018-04-12T09:17:38.216Z,89.96
2018-04-12T09:18:38.235Z,89.77
2018-04-12T09:19:38.293Z,89.48
2018-04-12T09:20:38.232Z,89.58
2018-04-12T09:21:38.222Z,89.67
2018-04-12T09:22:38.224Z,89.05
2018-04-12T09:23:39.051Z,88.76
2018-04-12T09:24:38.229Z,86.65
2018-04-12T09:25:38.303Z,83.15
2018-04-12T09:26:38.231Z,82.38
2018-04-12T09:27:38.248Z,81.37
2018-04-12T09:28:38.244Z,78.96
2018-04-12T09:29:38.287Z,76.31
2018-04-12T09:30:38.248Z,74.43
2018-04-12T09:31:38.274Z,74.23
2018-04-12T09:32:38.304Z,74.96
2018-04-12T09:33:38.270Z,74.29
2018-04-12T09:34:38.303Z,74.68
2018-04-12T09:35:38.284Z,74.68
2018-04-12T09:36:38.274Z,75.31
2018-04-12T09:37:38.300Z,76.81
2018-04-12T09:38:38.267Z,78.30
2018-04-12T09:39:38.299Z,78.53
2018-04-12T09:40:38.284Z,77.23
2018-04-12T09:41:38.296Z,76.65
2018-04-12T09:42:38.302Z,75.89
2018-04-12T09:43:38.306Z,75.73
2018-04-12T09:44:38.337Z,74.39
2018-04-12T09:45:38.322Z,73.46
2018-04-12T09:46:39.060Z,74.26
2018-04-12T09:47:38.362Z,74.96
2018-04-12T09:48:38.353Z,74.68
2018-04-12T09:49:39.074Z,74.87
2018-04-12T09:50:38.334Z,75.79
2018-04-12T09:51:38.344Z,76.71
2018-04-12T09:52:38.404Z,77.23
2018-04-12T09:53:40.206Z,76.81
2018-04-12T09:54:38.419Z,78.55
2018-04-12T09:55:38.364Z,79.36
2018-04-12T09:56:38.388Z,79.07
2018-04-12T09:57:38.402Z,77.67
2018-04-12T09:58:38.400Z,76.65
2018-04-12T09:59:38.422Z,75.40
2018-04-12T10:00:38.397Z,75.73
2018-04-12T10:01:38.390Z,74.96
2018-04-12T10:02:38.412Z,73.24
2018-04-12T10:03:38.447Z,73.24
2018-04-12T10:04:38.418Z,72.89
2018-04-12T10:05:38.428Z,71.10
2018-04-12T10:06:38.484Z,71.98
2018-04-12T10:07:38.949Z,72.85
2018-04-12T10:08:38.451Z,72.75
2018-04-12T10:09:38.457Z,72.60
2018-04-12T10:10:38.445Z,72.02
2018-04-12T10:11:38.509Z,71.10
2018-04-12T10:12:38.455Z,70.56
2018-04-12T10:13:38.547Z,68.96
2018-04-12T10:14:38.460Z,68.19
2018-04-12T10:15:38.472Z,67.22
2018-04-12T10:16:38.495Z,68.31
2018-04-12T10:17:38.515Z,70.52
2018-04-12T10:18:38.492Z,71.16
2018-04-12T10:19:38.697Z,72.31
2018-04-12T10:20:38.501Z,72.08
2018-04-12T10:21:38.525Z,72.56
2018-04-12T10:22:38.532Z,72.12
2018-04-12T10:23:38.525Z,72.33
2018-04-12T10:24:38.536Z,74.89
2018-04-12T10:25:38.543Z,75.60
2018-04-12T10:26:38.549Z,75.21
2018-04-12T10:27:38.569Z,73.91
2018-04-12T10:28:38.727Z,72.02
2018-04-12T10:29:38.568Z,71.93
2018-04-12T10:30:39.085Z,71.14
2018-04-12T10:31:38.585Z,69.15
2018-04-12T10:32:38.589Z,67.45
2018-04-12T10:33:38.607Z,65.69
2018-04-12T10:34:38.635Z,63.41
2018-04-12T10:35:38.612Z,62.51
2018-04-12T10:36:38.619Z,66.81
2018-04-12T10:37:38.657Z,67.03
2018-04-12T10:38:38.695Z,65.66
2018-04-12T10:39:38.644Z,63.60
2018-04-12T10:40:38.730Z,61.29
2018-04-12T10:41:38.730Z,63.06
2018-04-12T10:42:38.684Z,64.40
2018-04-12T10:43:38.698Z,65.81
2018-04-12T10:44:38.695Z,66.74
2018-04-12T10:45:38.718Z,68.12
2018-04-12T10:46:38.728Z,68.19
2018-04-12T10:47:38.816Z,66.04
2018-04-12T10:48:38.827Z,63.85
2018-04-12T10:49:38.797Z,62.60
2018-04-12T10:50:38.762Z,63.54
2018-04-12T10:51:38.778Z,65.11
2018-04-12T10:52:38.781Z,65.59
2018-04-12T10:53:38.795Z,67.25
2018-04-12T10:54:38.781Z,68.09
2018-04-12T10:55:38.809Z,67.51
2018-04-12T10:56:38.807Z,65.17
2018-04-12T10:57:38.820Z,62.54
2018-04-12T10:58:38.819Z,60.45
2018-04-12T10:59:38.829Z,59.80
2018-04-12T11:00:39.598Z,59.48
2018-04-12T11:01:38.855Z,60.97
2018-04-12T11:02:38.870Z,63.60
2018-04-12T11:03:38.881Z,65.11
2018-04-12T11:04:38.896Z,65.08
2018-04-12T11:05:38.896Z,64.28
2018-04-12T11:06:38.899Z,65.05
2018-04-12T11:07:38.966Z,64.56
2018-04-12T11:08:38.990Z,63.85
2018-04-12T11:09:38.977Z,62.90
2018-04-12T11:10:38.939Z,62.51
2018-04-12T11:11:39.013Z,61.74
2018-04-12T11:12:38.994Z,63.15
2018-04-12T11:13:39.042Z,64.56
2018-04-12T11:14:39.017Z,65.97
2018-04-12T11:15:39.028Z,67.19
2018-04-12T11:16:39.070Z,68.15
2018-04-12T11:17:39.057Z,68.70
2018-04-12T11:18:39.072Z,69.62
2018-04-12T11:19:39.042Z,70.68
2018-04-12T11:20:39.075Z,70.78
2018-04-12T11:21:39.065Z,71.98
2018-04-12T11:22:39.086Z,72.28
2018-04-12T11:23:39.117Z,72.18
2018-04-12T11:24:39.101Z,73.10
2018-04-12T11:25:39.117Z,74.44
2018-04-12T11:26:39.456Z,73.87
2018-04-12T11:27:39.123Z,73.87
2018-04-12T11:28:39.157Z,75.18
2018-04-12T11:29:39.122Z,76.14
2018-04-12T11:30:39.176Z,75.40
2018-04-12T11:31:39.183Z,73.52
2018-04-12T11:32:39.146Z,73.62
2018-04-12T11:33:39.147Z,72.31
2018-04-12T11:34:39.157Z,72.12
2018-04-12T11:35:39.160Z,71.93
2018-04-12T11:36:39.176Z,71.93
2018-04-12T11:37:39.168Z,71.93
2018-04-12T11:38:39.169Z,71.73
2018-04-12T11:39:40.121Z,72.22
2018-04-12T11:40:39.207Z,72.69
2018-04-12T11:41:39.217Z,72.41
2018-04-12T11:42:40.125Z,72.12
2018-04-12T11:43:39.206Z,72.85
2018-04-12T11:44:39.269Z,74.83
2018-04-12T11:45:39.239Z,75.02
2018-04-12T11:46:40.130Z,74.77
2018-04-12T11:47:39.275Z,75.12
2018-04-12T11:48:39.273Z,75.70
2018-04-12T11:49:39.318Z,75.50
2018-04-12T11:50:39.275Z,75.45
2018-04-12T11:51:39.306Z,74.58
2018-04-12T11:52:40.132Z,74.77
2018-04-12T11:53:39.264Z,73.43
2018-04-12T11:54:39.265Z,73.66
2018-04-12T11:55:39.327Z,73.56
2018-04-12T11:56:40.170Z,73.31
2018-04-12T11:57:39.450Z,71.93
2018-04-12T11:58:39.406Z,71.93
2018-04-12T11:59:39.343Z,72.89
2018-04-12T12:00:39.369Z,73.52
2018-04-12T12:01:39.398Z,73.52
2018-04-12T12:02:39.328Z,73.56
2018-04-12T12:03:39.329Z,73.66
2018-04-12T12:04:40.229Z,74.71
2018-04-12T12:05:39.329Z,73.56
2018-04-12T12:06:39.321Z,73.66
2018-04-12T12:07:39.358Z,74.43
2018-04-12T12:08:39.337Z,73.43
2018-04-12T12:09:41.213Z,74.87
2018-04-12T12:10:39.344Z,73.91
2018-04-12T12:11:39.347Z,73.81
2018-04-12T12:12:39.350Z,74.01
2018-04-12T12:13:40.180Z,74.10
2018-04-12T12:14:39.388Z,74.48
2018-04-12T12:15:39.373Z,74.58
2018-04-12T12:16:39.380Z,76.17
2018-04-12T12:17:39.380Z,76.56
2018-04-12T12:18:39.376Z,76.46
2018-04-12T12:19:39.396Z,76.56
2018-04-12T12:20:39.455Z,75.92
2018-04-12T12:21:39.390Z,76.17
2018-04-12T12:22:39.390Z,76.37
2018-04-12T12:23:39.415Z,76.32
2018-04-12T12:24:39.400Z,76.27
2018-04-12T12:25:39.411Z,77.17
2018-04-12T12:26:39.419Z,75.87
2018-04-12T12:27:39.437Z,74.13
2018-04-12T12:28:39.456Z,73.75
2018-04-12T12:29:39.427Z,73.46
2018-04-12T12:30:39.551Z,73.79
2018-04-12T12:31:39.450Z,72.44
2018-04-12T12:32:39.437Z,73.37
2018-04-12T12:33:39.458Z,75.06
2018-04-12T12:34:39.458Z,74.68
2018-04-12T12:35:39.454Z,74.52
2018-04-12T12:36:39.458Z,74.27
2018-04-12T12:37:39.474Z,73.31
2018-04-12T12:38:39.466Z,72.19
2018-04-12T12:39:39.481Z,71.42
2018-04-12T12:40:39.508Z,71.14
2018-04-12T12:41:39.493Z,71.23
2018-04-12T12:42:39.482Z,71.96
2018-04-12T12:43:39.509Z,72.16
2018-04-12T12:44:39.496Z,71.96
2018-04-12T12:45:39.508Z,72.54
2018-04-12T12:46:39.511Z,72.54
2018-04-12T12:47:39.519Z,72.25
2018-04-12T12:48:39.515Z,72.54
2018-04-12T12:49:39.518Z,73.46
2018-04-12T12:50:39.539Z,74.39
2018-04-12T12:51:39.644Z,75.63
2018-04-12T12:52:40.156Z,76.12
2018-04-12T12:53:40.154Z,76.73
2018-04-12T12:54:39.544Z,75.67
2018-04-12T12:55:39.546Z,73.98
2018-04-12T12:56:39.545Z,73.46
2018-04-12T12:57:39.582Z,74.62
2018-04-12T12:58:39.571Z,75.48
2018-04-12T12:59:39.555Z,74.90
2018-04-12T13:00:39.612Z,75.87
2018-04-12T13:01:39.601Z,74.81
2018-04-12T13:02:39.572Z,74.52
2018-04-12T13:03:39.596Z,74.81
2018-04-12T13:04:59.228Z,75.06
2018-04-12T13:05:40.188Z,75.82
2018-04-12T13:06:42.667Z,75.82
2018-04-12T13:07:40.169Z,75.92
2018-04-12T13:08:40.190Z,76.69
2018-04-12T13:09:40.176Z,76.50
2018-04-12T13:10:39.605Z,76.75
2018-04-12T13:11:39.609Z,76.69
2018-04-12T13:12:39.611Z,76.88
2018-04-12T13:13:39.621Z,76.31
2018-04-12T13:14:40.161Z,76.69
2018-04-12T13:15:39.617Z,75.82
2018-04-12T13:16:39.638Z,76.50
2018-04-12T13:17:39.638Z,75.54
2018-04-12T13:18:39.642Z,76.21
2018-04-12T13:19:39.633Z,76.31
2018-04-12T13:20:40.169Z,76.40
2018-04-12T13:21:39.979Z,76.31
2018-04-12T13:22:39.649Z,76.75
2018-04-12T13:23:39.653Z,77.33
2018-04-12T13:24:39.646Z,77.33
2018-04-12T13:25:39.656Z,78.28
2018-04-12T13:26:41.457Z,78.28
2018-04-12T13:27:39.696Z,79.30
2018-04-12T13:28:39.684Z,78.92
2018-04-12T13:29:39.678Z,78.77
2018-04-12T13:30:39.688Z,78.96
2018-04-12T13:31:39.699Z,77.75
2018-04-12T13:32:39.708Z,76.88
2018-04-12T13:33:39.712Z,77.08
2018-04-12T13:34:39.722Z,77.08
2018-04-12T13:35:44.207Z,76.88
2018-04-12T13:36:43.171Z,77.26
2018-04-12T13:37:41.178Z,77.51
2018-04-12T13:38:39.731Z,77.26
2018-04-12T13:39:39.712Z,76.98
2018-04-12T13:40:39.711Z,76.59
2018-04-12T13:41:39.775Z,76.40
2018-04-12T13:42:39.723Z,77.71
2018-04-12T13:43:39.728Z,78.96
2018-04-12T13:44:39.737Z,79.39
2018-04-12T13:45:39.746Z,79.78
2018-04-12T13:46:39.733Z,79.44
2018-04-12T13:47:39.745Z,78.67
2018-04-12T13:48:39.764Z,77.75
2018-04-12T13:49:39.772Z,77.80
2018-04-12T13:50:39.751Z,79.05
2018-04-12T13:51:39.754Z,79.72
2018-04-12T13:52:39.793Z,78.67
2018-04-12T13:53:39.764Z,78.00
2018-04-12T13:54:39.769Z,77.84
2018-04-12T13:55:39.784Z,78.13
2018-04-12T13:56:39.829Z,77.08
2018-04-12T13:57:39.786Z,77.46
2018-04-12T13:58:39.777Z,77.36
2018-04-12T13:59:39.785Z,76.64
2018-04-12T14:00:39.838Z,76.12
2018-04-12T14:01:39.800Z,77.08
2018-04-12T14:02:39.822Z,77.56
2018-04-12T14:03:39.793Z,77.84
2018-04-12T14:04:39.900Z,77.71
2018-04-12T14:05:39.800Z,78.13
2018-04-12T14:06:39.822Z,77.94
2018-04-12T14:07:39.812Z,79.14
2018-04-12T14:08:40.681Z,78.52
2018-04-12T14:09:39.839Z,78.03
2018-04-12T14:10:39.846Z,78.13
2018-04-12T14:11:40.682Z,78.42
2018-04-12T14:12:39.841Z,77.17
2018-04-12T14:13:39.836Z,77.56
2018-04-12T14:14:39.831Z,77.46
2018-04-12T14:15:39.852Z,77.08
2018-04-12T14:16:39.857Z,77.36
2018-04-12T14:17:39.851Z,77.40
2018-04-12T14:18:39.841Z,76.44
2018-04-12T14:19:39.850Z,76.67
2018-04-12T14:20:39.856Z,75.81
2018-04-12T14:21:39.862Z,75.32
2018-04-12T14:22:39.869Z,74.65
2018-04-12T14:23:39.871Z,75.00
2018-04-12T14:24:39.879Z,76.25
2018-04-12T14:25:39.910Z,76.34
2018-04-12T14:26:39.875Z,76.73
2018-04-12T14:27:39.874Z,75.81
2018-04-12T14:28:39.884Z,75.81
2018-04-12T14:29:39.958Z,75.81
2018-04-12T14:30:39.905Z,75.62
2018-04-12T14:31:40.014Z,75.04
2018-04-12T14:32:39.899Z,74.50
2018-04-12T14:33:39.936Z,75.81
2018-04-12T14:34:40.020Z,76.00
2018-04-12T14:35:39.964Z,75.13
2018-04-12T14:36:39.922Z,75.62
2018-04-12T14:37:39.925Z,75.32
2018-04-12T14:38:39.934Z,74.98
2018-04-12T14:39:39.946Z,74.69
2018-04-12T14:40:39.951Z,74.98
2018-04-12T14:41:40.696Z,74.79
2018-04-12T14:42:39.943Z,74.60
2018-04-12T14:43:39.945Z,74.98
2018-04-12T14:44:39.958Z,74.21
2018-04-12T14:45:39.954Z,74.88
2018-04-12T14:46:40.086Z,74.98
2018-04-12T14:47:40.010Z,74.60
2018-04-12T14:48:40.696Z,75.07
2018-04-12T14:49:39.963Z,74.79
2018-04-12T14:50:39.975Z,74.79
2018-04-12T14:51:39.979Z,74.79
2018-04-12T14:52:40.716Z,74.94
2018-04-12T14:53:39.988Z,75.32
2018-04-12T14:54:39.989Z,75.90
2018-04-12T14:55:39.992Z,75.71
2018-04-12T14:56:40.702Z,75.62
2018-04-12T14:57:40.029Z,76.96
2018-04-12T14:58:40.002Z,76.19
2018-04-12T14:59:40.025Z,76.09
2018-04-12T15:00:40.082Z,75.90
2018-04-12T15:01:40.019Z,75.65
2018-04-12T15:02:40.031Z,75.37
2018-04-12T15:03:40.024Z,75.84
2018-04-12T15:04:40.028Z,75.65
2018-04-12T15:05:40.025Z,75.07
2018-04-12T15:06:40.035Z,75.46
2018-04-12T15:07:40.057Z,75.56
2018-04-12T15:08:40.055Z,74.88
2018-04-12T15:09:40.718Z,74.69
2018-04-12T15:10:40.057Z,75.07
2018-04-12T15:11:40.042Z,75.07
2018-04-12T15:12:40.067Z,74.69
2018-04-12T15:13:40.077Z,75.07
2018-04-12T15:14:40.071Z,75.56
2018-04-12T15:15:40.118Z,75.27
2018-04-12T15:16:40.067Z,74.79
2018-04-12T15:17:40.077Z,74.98
2018-04-12T15:18:40.085Z,74.98
2018-04-12T15:19:40.078Z,75.07
2018-04-12T15:20:40.107Z,74.98
2018-04-12T15:21:40.091Z,74.69
2018-04-12T15:22:40.135Z,74.69
2018-04-12T15:23:40.101Z,75.07
2018-04-12T15:24:40.108Z,74.69
2018-04-12T15:25:40.154Z,74.50
2018-04-12T15:26:40.146Z,74.69
2018-04-12T15:27:40.128Z,75.27
2018-04-12T15:28:40.165Z,75.46
2018-04-12T15:29:40.123Z,75.94
2018-04-12T15:30:40.712Z,75.94
2018-04-12T15:31:40.126Z,75.84
2018-04-12T15:32:40.136Z,75.56
2018-04-12T15:33:40.139Z,76.86
2018-04-12T15:34:40.139Z,76.77
2018-04-12T15:35:40.153Z,77.44
2018-04-12T15:36:40.191Z,77.15
2018-04-12T15:37:40.176Z,77.44
2018-04-12T15:38:40.161Z,78.11
2018-04-12T15:39:40.166Z,77.25
2018-04-12T15:40:40.176Z,77.21
2018-04-12T15:41:40.174Z,77.98
2018-04-12T15:42:40.175Z,78.65
2018-04-12T15:43:40.174Z,77.88
2018-04-12T15:44:40.177Z,77.88
2018-04-12T15:45:40.243Z,77.88
2018-04-12T15:46:40.267Z,77.73
2018-04-12T15:47:40.201Z,77.73
2018-04-12T15:48:40.202Z,77.63
2018-04-12T15:49:40.227Z,77.83
2018-04-12T15:50:40.231Z,78.21
2018-04-12T15:51:40.209Z,77.25
2018-04-12T15:52:40.216Z,77.53
2018-04-12T15:53:40.223Z,77.15
2018-04-12T15:54:40.225Z,77.63
2018-04-12T15:55:40.222Z,77.92
2018-04-12T15:56:40.230Z,78.02
2018-04-12T15:57:40.296Z,78.08
2018-04-12T15:58:40.229Z,78.17
2018-04-12T15:59:40.236Z,78.75
2018-04-12T16:00:40.246Z,78.84
2018-04-12T16:01:40.244Z,78.45
2018-04-12T16:02:40.249Z,79.03
2018-04-12T16:03:40.322Z,78.75
2018-04-12T16:04:40.258Z,78.65
2018-04-12T16:05:40.268Z,79.32
2018-04-12T16:06:40.264Z,79.99
2018-04-12T16:07:41.684Z,79.90
2018-04-12T16:08:40.299Z,79.99
2018-04-12T16:09:40.280Z,79.80
2018-04-12T16:10:40.310Z,80.19
2018-04-12T16:11:40.304Z,80.28
2018-04-12T16:12:40.288Z,80.19
2018-04-12T16:13:40.297Z,80.57
2018-04-12T16:14:40.295Z,80.73
2018-04-12T16:15:40.306Z,80.28
2018-04-12T16:16:40.314Z,80.34
2018-04-12T16:17:40.302Z,80.24
2018-04-12T16:18:40.342Z,80.47
2018-04-12T16:19:40.317Z,80.73
2018-04-12T16:20:40.408Z,80.91
2018-04-12T16:21:40.328Z,81.01
2018-04-12T16:22:40.328Z,81.10
2018-04-12T16:23:40.333Z,81.10
2018-04-12T16:24:40.395Z,81.49
2018-04-12T16:25:40.371Z,81.30
2018-04-12T16:26:40.367Z,81.49
2018-04-12T16:29:00.508Z,81.40
2018-04-12T16:29:40.370Z,81.30
2018-04-12T16:30:40.355Z,81.68
2018-04-12T16:31:40.402Z,81.97
2018-04-12T16:32:40.361Z,81.97
2018-04-12T16:33:40.366Z,82.07
2018-04-12T16:34:40.371Z,81.59
2018-04-12T16:35:40.390Z,82.26
2018-04-12T16:36:40.377Z,82.35
2018-04-12T16:37:40.389Z,82.26
2018-04-12T16:38:40.402Z,82.84
2018-04-12T16:39:40.432Z,82.93
2018-04-12T16:40:40.396Z,82.64
2018-04-12T16:41:40.386Z,83.22
2018-04-12T16:42:40.392Z,83.80
2018-04-12T16:43:40.434Z,84.08
2018-04-12T16:44:40.420Z,83.80
2018-04-12T16:45:40.469Z,83.22
2018-04-12T16:46:40.459Z,83.22
2018-04-12T16:47:40.552Z,82.84
2018-04-12T16:48:40.488Z,83.51
2018-04-12T16:49:40.431Z,85.86
2018-04-12T16:50:40.420Z,87.54
2018-04-12T16:51:40.432Z,90.80
2018-04-12T16:52:40.432Z,92.39
2018-04-12T16:53:40.441Z,94.88
2018-04-12T16:54:40.440Z,96.99
2018-04-12T16:55:40.432Z,98.86
2018-04-12T16:56:40.445Z,99.15
2018-04-12T16:57:40.451Z,99.99
2018-04-12T16:58:40.452Z,99.77
2018-04-12T16:59:40.457Z,99.96
2018-04-12T17:00:40.538Z,99.99
2018-04-12T17:01:40.467Z,99.99
2018-04-12T17:02:40.464Z,99.99
2018-04-12T17:03:40.492Z,97.90
2018-04-12T17:04:40.463Z,99.43
2018-04-12T17:05:40.469Z,97.38
2018-04-12T17:06:40.474Z,99.19
2018-04-12T17:07:40.479Z,99.99
2018-04-12T17:08:40.596Z,99.99
2018-04-12T17:09:40.486Z,99.99
2018-04-12T17:10:40.496Z,99.99
2018-04-12T17:11:40.482Z,99.99
2018-04-12T17:12:40.501Z,99.99
2018-04-12T17:13:40.505Z,99.99
2018-04-12T17:14:40.509Z,99.99
2018-04-12T17:15:40.503Z,99.99
2018-04-12T17:16:40.511Z,99.99
2018-04-12T17:17:40.513Z,99.99
2018-04-12T17:18:40.548Z,99.99
2018-04-12T17:19:40.521Z,99.99
2018-04-12T17:20:40.529Z,99.99
2018-04-12T17:21:40.535Z,99.99
2018-04-12T17:22:40.534Z,99.99
2018-04-12T17:23:40.525Z,97.75
2018-04-12T17:24:40.631Z,99.52
2018-04-12T17:25:40.531Z,98.47
2018-04-12T17:26:40.554Z,98.57
2018-04-12T17:27:40.551Z,98.66
2018-04-12T17:28:40.573Z,99.99
2018-04-12T17:29:41.362Z,99.99
2018-04-12T17:30:40.554Z,99.99
2018-04-12T17:31:41.368Z,99.99
2018-04-12T17:32:40.621Z,99.99
2018-04-12T17:33:40.576Z,99.99
2018-04-12T17:34:40.577Z,99.99
2018-04-12T17:35:40.591Z,99.99
2018-04-12T17:36:40.574Z,99.99
2018-04-12T17:37:40.574Z,99.99
2018-04-12T17:38:40.577Z,99.99
2018-04-12T17:39:40.583Z,99.48
2018-04-12T17:40:40.579Z,97.80
2018-04-12T17:41:40.596Z,96.80
2018-04-12T17:42:40.598Z,96.75
2018-04-12T17:43:40.596Z,96.27
2018-04-12T17:44:40.593Z,96.42
2018-04-12T17:45:40.601Z,98.05
2018-04-12T17:46:40.608Z,96.84
2018-04-12T17:47:40.616Z,97.33
2018-04-12T17:48:40.613Z,99.24
2018-04-12T17:49:40.616Z,98.38
2018-04-12T17:50:40.642Z,99.15
2018-04-12T17:51:40.630Z,98.95
2018-04-12T17:52:40.616Z,99.67
2018-04-12T17:53:40.628Z,99.43
2018-04-12T17:54:40.649Z,99.99
2018-04-12T17:55:40.629Z,99.96
2018-04-12T17:56:40.635Z,98.28
2018-04-12T17:57:40.635Z,98.86
2018-04-12T17:58:40.642Z,97.61
2018-04-12T17:59:40.651Z,96.56
2018-04-12T18:00:40.673Z,96.94
2018-04-12T18:01:40.657Z,97.85
2018-04-12T18:02:40.670Z,98.19
2018-04-12T18:03:40.664Z,97.56
2018-04-12T18:04:40.662Z,98.43
2018-04-12T18:05:40.658Z,99.72
2018-04-12T18:06:40.666Z,99.91
2018-04-12T18:07:40.663Z,99.81
2018-04-12T18:08:40.733Z,98.95
2018-04-12T18:09:40.680Z,98.19
2018-04-12T18:10:40.675Z,98.95
2018-04-12T18:11:40.683Z,99.67
2018-04-12T18:12:40.683Z,99.99
2018-04-12T18:13:40.683Z,99.15
2018-04-12T18:14:40.691Z,98.47
2018-04-12T18:15:40.709Z,97.71
2018-04-12T18:16:40.697Z,98.19
2018-04-12T18:17:40.704Z,99.52
2018-04-12T18:18:40.715Z,98.66
2018-04-12T18:19:40.714Z,99.15
2018-04-12T18:20:40.721Z,99.33
2018-04-12T18:21:40.709Z,98.38
2018-04-12T18:22:40.728Z,99.43
2018-04-12T18:23:40.717Z,99.15
2018-04-12T18:24:40.713Z,99.99
2018-04-12T18:25:40.736Z,99.99
2018-04-12T18:26:40.720Z,99.99
2018-04-12T18:27:40.731Z,99.99
2018-04-12T18:28:40.743Z,99.99
2018-04-12T18:29:40.727Z,99.99
2018-04-12T18:30:40.735Z,99.99
2018-04-12T18:31:40.734Z,99.99
2018-04-12T18:32:40.754Z,99.99
2018-04-12T18:33:40.750Z,99.99
2018-04-12T18:34:40.741Z,99.99
2018-04-12T18:35:40.768Z,99.99
2018-04-12T18:36:40.778Z,99.99
2018-04-12T18:37:40.766Z,99.99
2018-04-12T18:38:40.760Z,99.99
2018-04-12T18:39:40.763Z,99.99
2018-04-12T18:40:40.762Z,99.99
2018-04-12T18:41:40.769Z,99.99
2018-04-12T18:42:40.838Z,99.99
2018-04-12T18:43:41.233Z,99.99
2018-04-12T18:44:40.783Z,99.99
2018-04-12T18:45:40.779Z,99.99
2018-04-12T18:46:40.801Z,99.99
2018-04-12T18:47:40.778Z,99.99
2018-04-12T18:48:40.798Z,99.99
2018-04-12T18:49:40.824Z,99.99
2018-04-12T18:50:40.798Z,99.99
2018-04-12T18:51:40.793Z,99.99
2018-04-12T18:52:40.817Z,99.99
2018-04-12T18:53:40.809Z,99.99
2018-04-12T18:54:40.874Z,99.99
2018-04-12T18:55:40.806Z,99.99
2018-04-12T18:56:40.808Z,99.99
2018-04-12T18:57:40.813Z,99.99
2018-04-12T18:58:40.815Z,99.99
2018-04-12T18:59:40.817Z,99.99
2018-04-12T19:00:40.846Z,99.99
2018-04-12T19:01:40.841Z,99.99
2018-04-12T19:02:40.829Z,99.99
2018-04-12T19:03:40.838Z,99.99
2018-04-12T19:04:40.834Z,99.99
2018-04-12T19:05:40.839Z,99.99
2018-04-12T19:06:40.858Z,99.99
2018-04-12T19:07:40.850Z,99.99
2018-04-12T19:08:40.863Z,99.99
2018-04-12T19:09:40.920Z,99.99
2018-04-12T19:10:40.854Z,99.99
2018-04-12T19:11:40.855Z,99.99
2018-04-12T19:12:40.855Z,99.99
2018-04-12T19:13:40.893Z,99.99
2018-04-12T19:14:40.864Z,99.99
2018-04-12T19:15:40.873Z,99.99
2018-04-12T19:16:40.909Z,99.99
2018-04-12T19:17:40.879Z,99.99
2018-04-12T19:18:40.876Z,99.99
2018-04-12T19:19:40.878Z,99.99
2018-04-12T19:20:40.883Z,99.99
2018-04-12T19:21:40.892Z,99.99
2018-04-12T19:22:40.895Z,99.99
2018-04-12T19:23:40.916Z,99.99
2018-04-12T19:24:40.884Z,99.99
2018-04-12T19:25:40.893Z,99.99
2018-04-12T19:26:40.900Z,99.99
2018-04-12T19:27:40.920Z,99.99
2018-04-12T19:28:40.899Z,99.99
2018-04-12T19:29:40.906Z,99.99
2018-04-12T19:30:41.404Z,99.99
2018-04-12T19:31:40.912Z,99.99
2018-04-12T19:32:40.925Z,99.99
2018-04-12T19:33:40.912Z,99.99
2018-04-12T19:34:41.409Z,99.99
2018-04-12T19:35:40.932Z,99.99
2018-04-12T19:36:40.995Z,99.99
2018-04-12T19:37:40.948Z,99.99
2018-04-12T19:38:40.942Z,99.99
2018-04-12T19:39:40.933Z,99.99
2018-04-12T19:40:40.958Z,99.99
2018-04-12T19:41:40.990Z,99.99
2018-04-12T19:42:40.945Z,99.99
2018-04-12T19:43:40.950Z,99.99
2018-04-12T19:44:40.951Z,99.99
2018-04-12T19:45:40.955Z,99.99
2018-04-12T19:46:40.959Z,99.99
2018-04-12T19:47:41.010Z,99.99
2018-04-12T19:48:40.953Z,99.99
2018-04-12T19:49:42.133Z,99.99
2018-04-12T19:50:41.014Z,99.99
2018-04-12T19:51:40.982Z,99.99
2018-04-12T19:52:40.982Z,99.99
2018-04-12T19:53:40.969Z,99.99
2018-04-12T19:54:40.972Z,99.99
2018-04-12T19:55:40.987Z,99.99
2018-04-12T19:56:40.987Z,99.99
2018-04-12T19:57:41.915Z,99.99
2018-04-12T19:58:40.990Z,99.99
2018-04-12T19:59:41.009Z,99.99
2018-04-12T20:00:41.034Z,99.99
2018-04-12T20:01:41.045Z,99.99
2018-04-12T20:02:41.000Z,99.99
2018-04-12T20:03:41.003Z,99.99
2018-04-12T20:04:41.011Z,99.99
2018-04-12T20:05:41.021Z,99.99
2018-04-12T20:06:41.022Z,99.99
2018-04-12T20:07:41.016Z,99.99
2018-04-12T20:08:41.026Z,99.99
2018-04-12T20:09:41.025Z,99.99
2018-04-12T20:10:41.027Z,99.99
2018-04-12T20:11:41.030Z,99.99
2018-04-12T20:12:41.038Z,99.99
2018-04-12T20:13:41.037Z,99.99
2018-04-12T20:14:41.034Z,99.99
2018-04-12T20:15:41.035Z,99.99
2018-04-12T20:16:41.044Z,99.99
2018-04-12T20:17:41.058Z,99.99
2018-04-12T20:18:41.927Z,99.99
2018-04-12T20:19:41.060Z,99.99
2018-04-12T20:20:41.941Z,99.99
2018-04-12T20:21:41.050Z,99.99
2018-04-12T20:22:41.128Z,99.99
2018-04-12T20:23:41.067Z,99.99
2018-04-12T20:24:41.096Z,99.99
2018-04-12T20:25:41.061Z,99.99
2018-04-12T20:26:41.056Z,99.99
2018-04-12T20:27:41.059Z,99.99
2018-04-12T20:28:41.080Z,99.99
2018-04-12T20:29:41.087Z,99.99
2018-04-12T20:30:41.097Z,99.99
2018-04-12T20:31:41.087Z,99.99
2018-04-12T20:32:41.088Z,99.99
2018-04-12T20:33:41.091Z,99.99
2018-04-12T20:34:41.239Z,99.99
2018-04-12T20:35:41.091Z,99.99
2018-04-12T20:36:41.097Z,99.99
2018-04-12T20:37:41.095Z,99.99
2018-04-12T20:38:41.122Z,99.99
2018-04-12T20:39:41.123Z,99.99
2018-04-12T20:40:41.113Z,99.99
2018-04-12T20:41:41.119Z,99.99
2018-04-12T20:42:41.105Z,99.99